createdAt,value
2018-02-04T00:02:05.078Z,94104.33
2018-02-04T00:04:32.619Z,94092.67
2018-02-04T00:07:00.322Z,94089.33
2018-02-04T00:09:27.846Z,94099.52
2018-02-04T00:11:55.375Z,94113.86
2018-02-04T00:14:22.897Z,94123.20
2018-02-04T00:16:50.510Z,94137.44
2018-02-04T00:19:18.174Z,94144.09
2018-02-04T00:21:46.396Z,94154.82
2018-02-04T00:24:14.130Z,94142.95
2018-02-04T00:26:41.652Z,94148.20
2018-02-04T00:29:09.201Z,94156.59
2018-02-04T00:31:36.755Z,94173.73
2018-02-04T00:34:04.560Z,94177.45
2018-02-04T00:36:32.227Z,94161.11
2018-02-04T00:38:59.836Z,94172.97
2018-02-04T00:41:27.371Z,94182.69
2018-02-04T00:43:54.900Z,94184.27
2018-02-04T00:46:22.416Z,94198.47
2018-02-04T00:48:50.098Z,94184.51
2018-02-04T00:51:17.664Z,94209.19
2018-02-04T00:53:45.178Z,94209.39
2018-02-04T00:56:12.707Z,94208.42
2018-02-04T00:58:40.263Z,94212.31
2018-02-04T01:01:07.909Z,94210.59
2018-02-04T01:03:36.321Z,94199.70
2018-02-04T01:06:03.874Z,94200.27
2018-02-04T01:08:31.385Z,94191.32
2018-02-04T01:10:59.138Z,94191.72
2018-02-04T01:13:26.811Z,94198.55
2018-02-04T01:15:54.596Z,94208.87
2018-02-04T01:18:22.435Z,94215.70
2018-02-04T01:20:49.937Z,94207.94
2018-02-04T01:23:17.695Z,94209.34
2018-02-04T01:25:45.352Z,94204.48
2018-02-04T01:28:12.912Z,94206.03
2018-02-04T01:30:40.596Z,94207.23
2018-02-04T01:33:08.123Z,94209.39
2018-02-04T01:35:35.642Z,94226.72
2018-02-04T01:38:03.366Z,94231.98
2018-02-04T01:40:30.889Z,94249.09
2018-02-04T01:42:58.529Z,94273.80
2018-02-04T01:45:26.072Z,94280.03
2018-02-04T01:48:05.619Z,94286.06
2018-02-04T01:50:33.373Z,94291.09
2018-02-04T01:53:01.271Z,94288.39
2018-02-04T01:55:29.019Z,94302.16
2018-02-04T01:57:56.563Z,94308.78
2018-02-04T02:00:24.209Z,94308.59
2018-02-04T02:02:52.165Z,94299.84
2018-02-04T02:05:19.707Z,94310.13
2018-02-04T02:07:47.269Z,94307.78
2018-02-04T02:10:14.785Z,94301.00
2018-02-04T02:12:43.464Z,94312.45
2018-02-04T02:15:10.992Z,94313.03
2018-02-04T02:17:38.908Z,94320.98
2018-02-04T02:20:06.425Z,94333.42
2018-02-04T02:22:33.993Z,94334.17
2018-02-04T02:25:01.672Z,94331.28
2018-02-04T02:27:29.215Z,94337.25
2018-02-04T02:29:56.777Z,94334.51
2018-02-04T02:32:24.540Z,94339.16
2018-02-04T02:34:52.060Z,94332.56
2018-02-04T02:37:19.706Z,94340.52
2018-02-04T02:39:47.227Z,94337.59
2018-02-04T02:42:14.737Z,94347.85
2018-02-04T02:44:42.263Z,94349.39
2018-02-04T02:47:10.011Z,94349.21
2018-02-04T02:49:37.709Z,94352.69
2018-02-04T02:52:05.248Z,94361.80
2018-02-04T02:54:33.136Z,94372.25
2018-02-04T02:57:00.665Z,94373.64
2018-02-04T02:59:28.196Z,94378.28
2018-02-04T03:01:55.879Z,94383.50
2018-02-04T03:04:23.683Z,94395.12
2018-02-04T03:06:51.191Z,94398.23
2018-02-04T03:09:19.807Z,94396.91
2018-02-04T03:11:47.376Z,94398.05
2018-02-04T03:14:15.022Z,94405.41
2018-02-04T03:16:42.875Z,94399.02
2018-02-04T03:19:10.381Z,94404.05
2018-02-04T03:21:38.131Z,94417.02
2018-02-04T03:24:05.915Z,94405.41
2018-02-04T03:26:33.588Z,94410.05
2018-02-04T03:29:01.127Z,94413.16
2018-02-04T03:31:28.790Z,94414.13
2018-02-04T03:33:56.313Z,94414.88
2018-02-04T03:36:23.845Z,94426.92
2018-02-04T03:38:51.370Z,94421.88
2018-02-04T03:41:18.900Z,94436.61
2018-02-04T03:43:46.405Z,94433.50
2018-02-04T03:46:13.935Z,94442.42
2018-02-04T03:48:41.459Z,94444.93
2018-02-04T03:51:08.977Z,94445.32
2018-02-04T03:53:36.492Z,94448.04
2018-02-04T03:56:04.065Z,94446.25
2018-02-04T03:58:31.588Z,94442.00
2018-02-04T04:00:59.404Z,94449.17
2018-02-04T04:03:26.940Z,94462.75
2018-02-04T04:05:54.606Z,94460.00
2018-02-04T04:08:22.131Z,94469.11
2018-02-04T04:10:49.874Z,94471.42
2018-02-04T04:13:17.399Z,94463.49
2018-02-04T04:15:45.806Z,94470.24
2018-02-04T04:18:13.471Z,94488.67
2018-02-04T04:20:40.999Z,94488.28
2018-02-04T04:23:08.534Z,94490.61
2018-02-04T04:25:36.054Z,94495.25
2018-02-04T04:28:03.605Z,94488.06
2018-02-04T04:30:31.515Z,94492.92
2018-02-04T04:32:59.042Z,94494.62
2018-02-04T04:35:26.741Z,94500.63
2018-02-04T04:37:54.632Z,94490.37
2018-02-04T04:40:22.151Z,94489.20
2018-02-04T04:42:49.723Z,94503.34
2018-02-04T04:45:17.525Z,94493.17
2018-02-04T04:47:45.200Z,94502.19
2018-02-04T04:50:13.251Z,94497.91
2018-02-04T04:52:41.422Z,94498.47
2018-02-04T04:55:08.952Z,94494.58
2018-02-04T04:57:36.467Z,94504.82
2018-02-04T05:00:05.896Z,94496.50
2018-02-04T05:02:33.401Z,94507.35
2018-02-04T05:05:00.992Z,94510.24
2018-02-04T05:07:28.511Z,94516.06
2018-02-04T05:09:56.043Z,94512.95
2018-02-04T05:12:23.773Z,94504.42
2018-02-04T05:14:51.371Z,94507.92
2018-02-04T05:17:18.904Z,94500.92
2018-02-04T05:19:46.434Z,94498.98
2018-02-04T05:22:14.872Z,94500.56
2018-02-04T05:24:42.541Z,94505.77
2018-02-04T05:27:10.088Z,94509.49
2018-02-04T05:29:37.626Z,94518.38
2018-02-04T05:32:05.467Z,94512.95
2018-02-04T05:34:32.982Z,94519.95
2018-02-04T05:37:00.628Z,94513.53
2018-02-04T05:39:28.176Z,94523.23
2018-02-04T05:41:56.069Z,94536.59
2018-02-04T05:44:23.882Z,94530.98
2018-02-04T05:46:51.426Z,94523.02
2018-02-04T05:49:19.119Z,94531.16
2018-02-04T05:51:46.666Z,94535.00
2018-02-04T05:54:14.284Z,94542.80
2018-02-04T05:56:41.805Z,94547.03
2018-02-04T05:59:09.338Z,94550.33
2018-02-04T06:01:37.116Z,94544.68
2018-02-04T06:04:04.745Z,94553.03
2018-02-04T06:06:32.416Z,94553.59
2018-02-04T06:08:59.944Z,94561.52
2018-02-04T06:11:27.693Z,94556.44
2018-02-04T06:13:56.396Z,94558.16
2018-02-04T06:16:23.935Z,94558.52
2018-02-04T06:18:51.607Z,94575.36
2018-02-04T06:21:19.350Z,94607.00
2018-02-04T06:23:47.246Z,94610.84
2018-02-04T06:26:15.048Z,94602.13
2018-02-04T06:28:42.905Z,94604.08
2018-02-04T06:31:10.707Z,94595.94
2018-02-04T06:33:38.225Z,94605.47
2018-02-04T06:36:05.875Z,94606.83
2018-02-04T06:38:33.692Z,94616.36
2018-02-04T06:41:01.224Z,94614.43
2018-02-04T06:43:28.737Z,94624.16
2018-02-04T06:45:56.275Z,94616.98
2018-02-04T06:48:23.997Z,94613.70
2018-02-04T06:50:51.530Z,94615.68
2018-02-04T06:53:19.087Z,94619.34
2018-02-04T06:55:46.972Z,94625.41
2018-02-04T06:58:15.378Z,94621.91
2018-02-04T07:00:43.029Z,94620.17
2018-02-04T07:03:10.826Z,94616.66
2018-02-04T07:05:38.350Z,94626.03
2018-02-04T07:08:05.869Z,94628.94
2018-02-04T07:10:33.423Z,94639.80
2018-02-04T07:13:01.253Z,94639.40
2018-02-04T07:15:29.014Z,94631.70
2018-02-04T07:17:56.537Z,94619.45
2018-02-04T07:20:24.045Z,94645.84
2018-02-04T07:22:51.885Z,94648.95
2018-02-04T07:25:19.560Z,94651.50
2018-02-04T07:27:47.327Z,94643.19
2018-02-04T07:30:15.092Z,94653.08
2018-02-04T07:32:42.632Z,94656.78
2018-02-04T07:35:10.293Z,94645.13
2018-02-04T07:37:38.064Z,94642.06
2018-02-04T07:40:05.586Z,94649.48
2018-02-04T07:42:33.147Z,94641.28
2018-02-04T07:45:00.694Z,94647.95
2018-02-04T07:47:28.351Z,94649.48
2018-02-04T07:49:55.878Z,94657.06
2018-02-04T07:52:23.390Z,94651.63
2018-02-04T07:54:51.162Z,94645.83
2018-02-04T07:57:18.703Z,94637.48
2018-02-04T07:59:46.392Z,94634.73
2018-02-04T08:02:14.189Z,94638.45
2018-02-04T08:04:41.727Z,94632.18
2018-02-04T08:07:09.424Z,94638.62
2018-02-04T08:09:36.998Z,94641.73
2018-02-04T08:12:04.589Z,94661.70
2018-02-04T08:14:32.138Z,94695.08
2018-02-04T08:16:59.682Z,94690.05
2018-02-04T08:19:27.458Z,94694.47
2018-02-04T08:21:54.971Z,94691.58
2018-02-04T08:24:22.618Z,94684.39
2018-02-04T08:26:50.148Z,94687.73
2018-02-04T08:29:17.900Z,94686.20
2018-02-04T08:31:45.423Z,94696.50
2018-02-04T08:34:12.987Z,94713.38
2018-02-04T08:36:40.634Z,94725.20
2018-02-04T08:39:08.187Z,94726.76
2018-02-04T08:41:36.051Z,94710.27
2018-02-04T08:44:03.798Z,94708.40
2018-02-04T08:46:31.351Z,94701.45
2018-02-04T08:48:59.028Z,94700.66
2018-02-04T08:51:26.874Z,94715.31
2018-02-04T08:53:54.399Z,94723.70
2018-02-04T08:56:21.923Z,94723.72
2018-02-04T08:58:49.679Z,94735.20
2018-02-04T09:01:17.259Z,94747.66
2018-02-04T09:03:44.864Z,94750.03
2018-02-04T09:06:12.589Z,94755.81
2018-02-04T09:08:40.131Z,94749.59
2018-02-04T09:11:07.815Z,94734.63
2018-02-04T09:13:35.365Z,94748.91
2018-02-04T09:16:02.980Z,94742.13
2018-02-04T09:18:30.625Z,94728.38
2018-02-04T09:20:58.556Z,94725.97
2018-02-04T09:23:26.091Z,94725.28
2018-02-04T09:25:53.847Z,94716.60
2018-02-04T09:28:21.394Z,94703.01
2018-02-04T09:30:49.102Z,94723.72
2018-02-04T09:33:16.678Z,94723.76
2018-02-04T09:35:44.199Z,94731.92
2018-02-04T09:38:11.705Z,94724.11
2018-02-04T09:40:39.243Z,94733.19
2018-02-04T09:43:06.894Z,94726.43
2018-02-04T09:45:35.445Z,94721.83
2018-02-04T09:48:03.003Z,94720.87
2018-02-04T09:50:30.577Z,94717.94
2018-02-04T09:52:58.464Z,94705.51
2018-02-04T09:55:26.135Z,94714.50
2018-02-04T09:57:53.669Z,94710.63
2018-02-04T10:00:21.318Z,94713.89
2018-02-04T10:02:49.067Z,94718.94
2018-02-04T10:05:16.945Z,94724.20
2018-02-04T10:07:44.689Z,94721.66
2018-02-04T10:10:12.212Z,94717.58
2018-02-04T10:12:39.849Z,94720.73
2018-02-04T10:15:08.000Z,94719.66
2018-02-04T10:17:35.762Z,94713.65
2018-02-04T10:20:03.756Z,94702.04
2018-02-04T10:22:31.320Z,94706.75
2018-02-04T10:24:59.059Z,94708.06
2018-02-04T10:27:26.840Z,94702.70
2018-02-04T10:29:54.378Z,94700.97
2018-02-04T10:32:21.902Z,94705.10
2018-02-04T10:34:49.414Z,94715.58
2018-02-04T10:37:17.092Z,94697.27
2018-02-04T10:39:44.624Z,94708.95
2018-02-04T10:42:12.166Z,94699.80
2018-02-04T10:44:39.925Z,94705.10
2018-02-04T10:47:07.441Z,94705.86
2018-02-04T10:49:35.129Z,94702.53
2018-02-04T10:52:03.068Z,94702.31
2018-02-04T10:54:32.032Z,94702.47
2018-02-04T10:56:59.848Z,94705.52
2018-02-04T10:59:27.361Z,94709.59
2018-02-04T11:01:54.921Z,94704.42
2018-02-04T11:04:22.439Z,94694.96
2018-02-04T11:06:50.231Z,94697.09
2018-02-04T11:09:17.814Z,94697.52
2018-02-04T11:11:45.459Z,94700.20
2018-02-04T11:14:13.365Z,94702.23
2018-02-04T11:16:41.082Z,94701.92
2018-02-04T11:19:08.667Z,94703.91
2018-02-04T11:21:36.251Z,94707.20
2018-02-04T11:24:03.861Z,94703.87
2018-02-04T11:26:31.624Z,94706.98
2018-02-04T11:28:59.265Z,94708.38
2018-02-04T11:31:26.809Z,94702.53
2018-02-04T11:33:54.370Z,94701.75
2018-02-04T11:36:22.024Z,94705.27
2018-02-04T11:38:49.552Z,94705.09
2018-02-04T11:41:17.132Z,94709.38
2018-02-04T11:43:44.842Z,94704.50
2018-02-04T11:46:12.378Z,94717.94
2018-02-04T11:48:39.961Z,94713.47
2018-02-04T11:51:07.639Z,94715.38
2018-02-04T11:53:35.252Z,94717.37
2018-02-04T11:56:02.829Z,94718.33
2018-02-04T11:58:30.541Z,94717.91
2018-02-04T12:00:58.199Z,94716.94
2018-02-04T12:03:26.464Z,94726.49
2018-02-04T12:05:53.996Z,94718.53
2018-02-04T12:08:21.667Z,94723.40
2018-02-04T12:10:49.200Z,94722.81
2018-02-04T12:13:16.791Z,94735.45
2018-02-04T12:15:44.340Z,94734.06
2018-02-04T12:18:12.017Z,94745.15
2018-02-04T12:20:39.666Z,94742.97
2018-02-04T12:23:07.207Z,94752.87
2018-02-04T12:25:34.775Z,94757.11
2018-02-04T12:28:02.354Z,94762.91
2018-02-04T12:30:29.951Z,94779.00
2018-02-04T12:32:57.506Z,94785.13
2018-02-04T12:35:25.309Z,94786.95
2018-02-04T12:37:52.865Z,94792.31
2018-02-04T12:40:20.448Z,94797.88
2018-02-04T12:42:48.016Z,94792.39
2018-02-04T12:45:15.565Z,94790.28
2018-02-04T12:47:43.330Z,94786.13
2018-02-04T12:50:11.019Z,94795.86
2018-02-04T12:52:38.856Z,94786.38
2018-02-04T12:55:06.441Z,94791.33
2018-02-04T12:57:33.984Z,94791.04
2018-02-04T13:00:01.889Z,94793.47
2018-02-04T13:02:29.670Z,94794.02
2018-02-04T13:04:57.246Z,94802.25
2018-02-04T13:07:24.870Z,94795.25
2018-02-04T13:09:52.587Z,94806.33
2018-02-04T13:12:20.144Z,94804.42
2018-02-04T13:14:48.763Z,94806.75
2018-02-04T13:17:17.250Z,94818.05
2018-02-04T13:19:44.932Z,94805.75
2018-02-04T13:22:13.162Z,94805.18
2018-02-04T13:24:40.810Z,94813.23
2018-02-04T13:27:08.343Z,94818.91
2018-02-04T13:29:35.948Z,94819.13
2018-02-04T13:32:03.506Z,94816.02
2018-02-04T13:34:31.054Z,94813.25
2018-02-04T13:36:58.614Z,94818.25
2018-02-04T13:39:26.157Z,94828.34
2018-02-04T13:41:53.690Z,94819.34
2018-02-04T13:44:21.243Z,94828.30
2018-02-04T13:46:48.822Z,94835.26
2018-02-04T13:49:16.391Z,94838.38
2018-02-04T13:51:43.951Z,94841.84
2018-02-04T13:54:11.502Z,94848.22
2018-02-04T13:56:39.065Z,94848.34
2018-02-04T13:59:06.683Z,94855.36
2018-02-04T14:01:34.621Z,94856.72
2018-02-04T14:04:02.295Z,94865.98
2018-02-04T14:06:29.885Z,94874.94
2018-02-04T14:08:57.501Z,94867.64
2018-02-04T14:11:25.022Z,94872.59
2018-02-04T14:13:52.570Z,94871.72
2018-02-04T14:16:20.133Z,94878.81
2018-02-04T14:18:47.718Z,94887.48
2018-02-04T14:21:15.260Z,94881.39
2018-02-04T14:23:42.854Z,94881.89
2018-02-04T14:26:10.465Z,94887.65
2018-02-04T14:28:38.049Z,94888.16
2018-02-04T14:31:05.622Z,94900.39
2018-02-04T14:33:33.258Z,94903.45
2018-02-04T14:36:00.814Z,94909.00
2018-02-04T14:38:28.378Z,94907.72
2018-02-04T14:40:55.928Z,94920.67
2018-02-04T14:43:23.524Z,94917.48
2018-02-04T14:45:51.055Z,94926.25
2018-02-04T14:48:18.987Z,94927.28
2018-02-04T14:50:46.577Z,94932.66
2018-02-04T14:53:14.280Z,94933.17
2018-02-04T14:55:41.898Z,94941.98
2018-02-04T14:58:09.515Z,94935.91
2018-02-04T15:00:37.099Z,94938.53
2018-02-04T15:03:05.494Z,94953.86
2018-02-04T15:05:33.274Z,94956.70
2018-02-04T15:08:00.876Z,94966.14
2018-02-04T15:10:28.444Z,94971.20
2018-02-04T15:12:56.052Z,94981.18
2018-02-04T15:15:23.900Z,94988.00
2018-02-04T15:17:51.464Z,94992.17
2018-02-04T15:20:19.367Z,94985.64
2018-02-04T15:22:46.959Z,95009.11
2018-02-04T15:25:14.598Z,95015.81
2018-02-04T15:27:42.189Z,95027.41
2018-02-04T15:30:10.063Z,95040.80
2018-02-04T15:32:37.648Z,95051.36
2018-02-04T15:35:05.233Z,95062.89
2018-02-04T15:37:32.880Z,95060.88
2018-02-04T15:40:00.489Z,95080.88
2018-02-04T15:42:28.187Z,95079.86
2018-02-04T15:44:55.995Z,95099.85
2018-02-04T15:47:23.560Z,95097.08
2018-02-04T15:49:51.183Z,95111.36
2018-02-04T15:52:19.140Z,95118.39
2018-02-04T15:54:47.120Z,95116.47
2018-02-04T15:57:14.772Z,95108.16
2018-02-04T15:59:42.694Z,95132.49
2018-02-04T16:02:10.301Z,95141.28
2018-02-04T16:04:37.892Z,95137.05
2018-02-04T16:07:05.709Z,95148.23
2018-02-04T16:09:33.319Z,95153.84
2018-02-04T16:12:00.912Z,95157.84
2018-02-04T16:14:28.589Z,95161.63
2018-02-04T16:16:56.155Z,95172.89
2018-02-04T16:19:23.739Z,95180.71
2018-02-04T16:21:51.352Z,95190.75
2018-02-04T16:24:19.157Z,95187.67
2018-02-04T16:26:46.829Z,95198.50
2018-02-04T16:29:14.730Z,95210.12
2018-02-04T16:31:43.052Z,95207.51
2018-02-04T16:34:10.776Z,95207.91
2018-02-04T16:36:38.448Z,95208.58
2018-02-04T16:39:06.050Z,95226.45
2018-02-04T16:41:33.614Z,95221.05
2018-02-04T16:44:01.247Z,95233.91
2018-02-04T16:46:28.855Z,95237.37
2018-02-04T16:48:57.071Z,95225.91
2018-02-04T16:51:25.451Z,95245.05
2018-02-04T16:53:53.228Z,95246.61
2018-02-04T16:56:20.789Z,95243.42
2018-02-04T16:58:48.386Z,95246.14
2018-02-04T17:01:16.758Z,95259.23
2018-02-04T17:03:44.309Z,95257.25
2018-02-04T17:06:11.903Z,95262.85
2018-02-04T17:08:39.478Z,95278.12
2018-02-04T17:11:07.133Z,95278.97
2018-02-04T17:13:34.934Z,95276.30
2018-02-04T17:16:04.578Z,95281.80
2018-02-04T17:18:33.000Z,95279.89
2018-02-04T17:21:02.297Z,95286.73
2018-02-04T17:23:29.879Z,95284.88
2018-02-04T17:25:57.512Z,95294.98
2018-02-04T17:28:25.092Z,95298.12
2018-02-04T17:30:52.725Z,95307.23
2018-02-04T17:33:20.296Z,95311.20
2018-02-04T17:35:48.855Z,95312.72
2018-02-04T17:38:16.443Z,95323.94
2018-02-04T17:40:44.217Z,95323.86
2018-02-04T17:43:11.788Z,95329.64
2018-02-04T17:45:39.392Z,95324.13
2018-02-04T17:48:07.066Z,95327.48
2018-02-04T17:50:35.089Z,95325.66
2018-02-04T17:53:02.671Z,95324.98
2018-02-04T17:55:31.140Z,95330.84
2018-02-04T17:57:58.689Z,95341.66
2018-02-04T18:00:27.360Z,95336.52
2018-02-04T18:02:54.996Z,95345.73
2018-02-04T18:05:22.728Z,95334.50
2018-02-04T18:07:51.016Z,95347.42
2018-02-04T18:10:19.194Z,95357.42
2018-02-04T18:12:48.211Z,95358.58
2018-02-04T18:15:16.445Z,95360.09
2018-02-04T18:17:44.446Z,95366.86
2018-02-04T18:20:13.007Z,95356.46
2018-02-04T18:22:40.596Z,95359.56
2018-02-04T18:25:08.197Z,95374.87
2018-02-04T18:27:35.857Z,95370.65
2018-02-04T18:30:08.855Z,95374.42
2018-02-04T18:32:37.183Z,95377.59
2018-02-04T18:35:05.591Z,95378.43
2018-02-04T18:37:33.380Z,95380.64
2018-02-04T18:40:01.019Z,95372.41
2018-02-04T18:42:28.686Z,95376.58
2018-02-04T18:44:57.217Z,95386.11
2018-02-04T18:47:24.848Z,95386.46
2018-02-04T18:49:52.721Z,95387.17
2018-02-04T18:52:20.449Z,95388.38
2018-02-04T18:54:48.151Z,95392.19
2018-02-04T18:57:15.797Z,95398.00
2018-02-04T18:59:43.615Z,95398.63
2018-02-04T19:02:12.242Z,95401.33
2018-02-04T19:04:39.853Z,95394.17
2018-02-04T19:07:07.477Z,95384.47
2018-02-04T19:09:36.064Z,95391.58
2018-02-04T19:12:03.871Z,95389.59
2018-02-04T19:14:31.478Z,95391.86
2018-02-04T19:16:59.061Z,95394.91
2018-02-04T19:19:26.787Z,95391.81
2018-02-04T19:21:54.725Z,95395.15
2018-02-04T19:24:23.287Z,95398.61
2018-02-04T19:26:50.892Z,95405.17
2018-02-04T19:29:19.156Z,95399.65
2018-02-04T19:31:46.842Z,95394.24
2018-02-04T19:34:14.440Z,95393.73
2018-02-04T19:36:45.146Z,95388.72
2018-02-04T19:39:12.793Z,95387.37
2018-02-04T19:41:40.948Z,95389.28
2018-02-04T19:44:08.824Z,95390.00
2018-02-04T19:46:36.412Z,95395.59
2018-02-04T19:49:04.686Z,95400.16
2018-02-04T19:51:32.729Z,95391.81
2018-02-04T19:54:00.495Z,95405.28
2018-02-04T19:56:28.242Z,95408.14
2018-02-04T19:58:56.173Z,95409.45
2018-02-04T20:01:24.221Z,95419.23
2018-02-04T20:03:51.916Z,95422.84
2018-02-04T20:06:19.500Z,95421.20
2018-02-04T20:08:47.156Z,95430.30
2018-02-04T20:11:14.960Z,95438.41
2018-02-04T20:13:42.573Z,95444.52
2018-02-04T20:16:10.164Z,95455.29
2018-02-04T20:18:38.678Z,95462.76
2018-02-04T20:21:06.274Z,95460.05
2018-02-04T20:23:33.842Z,95466.37
2018-02-04T20:26:01.455Z,95470.02
2018-02-04T20:28:29.246Z,95471.72
2018-02-04T20:30:56.968Z,95471.27
2018-02-04T20:33:25.282Z,95472.78
2018-02-04T20:35:53.293Z,95476.14
2018-02-04T20:38:21.081Z,95478.40
2018-02-04T20:40:48.760Z,95483.14
2018-02-04T20:43:16.368Z,95491.02
2018-02-04T20:45:43.991Z,95488.22
2018-02-04T20:48:11.632Z,95477.53
2018-02-04T20:50:39.229Z,95505.48
2018-02-04T20:53:06.851Z,95517.16
2018-02-04T20:55:34.484Z,95512.04
2018-02-04T20:58:02.050Z,95524.70
2018-02-04T21:00:29.672Z,95525.91
2018-02-04T21:02:57.256Z,95523.67
2018-02-04T21:05:25.893Z,95521.47
2018-02-04T21:07:54.561Z,95527.94
2018-02-04T21:10:22.255Z,95518.02
2018-02-04T21:12:49.899Z,95519.87
2018-02-04T21:15:17.966Z,95526.27
2018-02-04T21:17:46.149Z,95531.27
2018-02-04T21:20:14.353Z,95527.02
2018-02-04T21:22:41.959Z,95528.67
2018-02-04T21:25:09.527Z,95535.98
2018-02-04T21:27:37.465Z,95531.92
2018-02-04T21:30:09.247Z,95529.08
2018-02-04T21:32:38.445Z,95529.41
2018-02-04T21:35:40.287Z,95530.58
2018-02-04T21:38:16.780Z,95539.77
2018-02-04T21:40:44.349Z,95544.37
2018-02-04T21:43:11.960Z,95543.57
2018-02-04T21:45:40.454Z,95550.48
2018-02-04T21:50:53.317Z,95566.41
2018-02-04T21:53:23.254Z,95570.22
2018-02-04T21:55:50.762Z,95569.83
2018-02-04T21:58:18.367Z,95577.12
2018-02-04T22:00:45.950Z,95578.27
2018-02-04T22:03:13.477Z,95560.70
2018-02-04T22:05:41.010Z,95578.27
2018-02-04T22:08:09.509Z,95584.83
2018-02-04T22:14:03.692Z,95590.14
2018-02-04T22:16:31.438Z,95595.33
2018-02-04T22:18:58.959Z,95595.94
2018-02-04T22:21:26.563Z,95609.05
2018-02-04T22:27:34.645Z,95609.72
2018-02-04T22:30:12.486Z,95603.28
2018-02-04T22:32:40.361Z,95610.77
2018-02-04T22:35:07.984Z,95616.48
2018-02-04T22:37:35.668Z,95605.98
2018-02-04T22:40:04.291Z,95610.41
2018-02-04T22:42:31.869Z,95620.56
2018-02-04T22:45:26.782Z,95629.22
2018-02-04T22:47:54.575Z,95623.05
2018-02-04T22:50:22.207Z,95631.52
2018-02-04T22:52:49.769Z,95625.35
2018-02-04T22:55:17.292Z,95637.10
2018-02-04T22:57:44.848Z,95637.10
2018-02-04T23:00:44.770Z,95642.32
2018-02-04T23:03:27.690Z,95642.16
2018-02-04T23:05:55.297Z,95636.92
2018-02-04T23:08:29.943Z,95637.16
2018-02-04T23:10:57.528Z,95645.52
2018-02-04T23:13:25.424Z,95644.77
2018-02-04T23:16:14.616Z,95649.06
2018-02-04T23:18:42.179Z,95646.98
2018-02-04T23:21:09.713Z,95653.89
2018-02-04T23:23:39.859Z,95662.23
2018-02-04T23:26:07.626Z,95664.84
2018-02-04T23:28:35.332Z,95665.95
2018-02-04T23:31:03.037Z,95665.30
2018-02-04T23:33:30.582Z,95672.52
2018-02-04T23:36:24.223Z,95672.97
2018-02-04T23:42:46.055Z,95688.32
2018-02-04T23:47:57.105Z,95684.97
2018-02-04T23:50:24.731Z,95683.62
2018-02-04T23:55:31.994Z,95681.72
2018-02-04T23:58:00.399Z,95682.52
